createdAt,value
2018-07-23T00:00:10.757Z,0
2018-07-23T00:01:10.756Z,0
2018-07-23T00:02:10.816Z,0
2018-07-23T00:03:10.901Z,0
2018-07-23T00:04:10.864Z,0
2018-07-23T00:05:10.859Z,0
2018-07-23T00:06:10.791Z,0
2018-07-23T00:07:10.778Z,0
2018-07-23T00:08:10.773Z,0
2018-07-23T00:09:10.774Z,0
2018-07-23T00:10:10.778Z,0
2018-07-23T00:11:10.776Z,0
2018-07-23T00:12:10.779Z,0
2018-07-23T00:13:10.731Z,0
2018-07-23T00:14:10.847Z,0
2018-07-23T00:15:10.814Z,0
2018-07-23T00:16:10.905Z,0
2018-07-23T00:17:10.772Z,0
2018-07-23T00:18:10.855Z,0
2018-07-23T00:19:10.883Z,0
2018-07-23T00:20:10.767Z,0
2018-07-23T00:21:10.848Z,0
2018-07-23T00:22:10.855Z,0
2018-07-23T00:23:10.767Z,0
2018-07-23T00:24:10.888Z,0
2018-07-23T00:25:10.780Z,0
2018-07-23T00:26:10.746Z,0
2018-07-23T00:27:10.829Z,0
2018-07-23T00:28:10.860Z,0
2018-07-23T00:29:10.858Z,0
2018-07-23T00:30:10.861Z,0
2018-07-23T00:31:10.790Z,0
2018-07-23T00:32:10.859Z,0
2018-07-23T00:33:10.865Z,0
2018-07-23T00:34:10.793Z,0
2018-07-23T00:35:10.832Z,0
2018-07-23T00:36:10.791Z,0
2018-07-23T00:37:10.868Z,0
2018-07-23T00:38:10.903Z,0
2018-07-23T00:39:10.860Z,0
2018-07-23T00:40:10.838Z,0
2018-07-23T00:41:10.803Z,0
2018-07-23T00:42:10.796Z,0
2018-07-23T00:43:10.883Z,0
2018-07-23T00:44:10.877Z,0
2018-07-23T00:45:10.864Z,0
2018-07-23T00:46:10.790Z,0
2018-07-23T00:47:10.798Z,0
2018-07-23T00:48:10.869Z,0
2018-07-23T00:49:10.815Z,0
2018-07-23T00:50:10.801Z,0
2018-07-23T00:51:10.873Z,0
2018-07-23T00:52:10.802Z,0
2018-07-23T00:53:10.804Z,0
2018-07-23T00:54:10.816Z,0
2018-07-23T00:55:10.908Z,0
2018-07-23T00:56:10.875Z,0
2018-07-23T00:57:10.875Z,0
2018-07-23T00:58:10.847Z,0
2018-07-23T00:59:10.914Z,0
2018-07-23T01:00:10.887Z,0
2018-07-23T01:01:10.836Z,0
2018-07-23T01:02:10.899Z,0
2018-07-23T01:03:10.906Z,0
2018-07-23T01:04:10.904Z,0
2018-07-23T01:05:10.936Z,0
2018-07-23T01:06:10.857Z,0
2018-07-23T01:07:10.819Z,0
2018-07-23T01:08:10.945Z,0
2018-07-23T01:09:10.788Z,0
2018-07-23T01:10:10.882Z,0
2018-07-23T01:11:10.887Z,0
2018-07-23T01:12:10.866Z,0
2018-07-23T01:13:10.808Z,0
2018-07-23T01:14:10.911Z,0
2018-07-23T01:15:10.856Z,0
2018-07-23T01:16:10.896Z,0
2018-07-23T01:17:10.872Z,0
2018-07-23T01:18:10.871Z,0
2018-07-23T01:19:10.765Z,0
2018-07-23T01:20:10.914Z,0
2018-07-23T01:21:10.875Z,0
2018-07-23T01:22:10.825Z,0
2018-07-23T01:23:10.810Z,0
2018-07-23T01:24:10.884Z,0
2018-07-23T01:25:10.833Z,0
2018-07-23T01:26:10.888Z,0
2018-07-23T01:27:10.818Z,0
2018-07-23T01:28:10.958Z,0
2018-07-23T01:29:10.865Z,0
2018-07-23T01:30:10.875Z,0
2018-07-23T01:31:10.877Z,0
2018-07-23T01:32:10.870Z,0
2018-07-23T01:33:10.836Z,0
2018-07-23T01:34:10.908Z,0
2018-07-23T01:35:10.936Z,0
2018-07-23T01:36:10.937Z,0
2018-07-23T01:37:10.902Z,0
2018-07-23T01:38:10.826Z,0
2018-07-23T01:39:10.898Z,0
2018-07-23T01:40:10.832Z,0
2018-07-23T01:41:10.895Z,0
2018-07-23T01:42:10.896Z,0
2018-07-23T01:43:10.963Z,0
2018-07-23T01:44:10.902Z,0
2018-07-23T01:45:10.861Z,0
2018-07-23T01:46:10.901Z,0
2018-07-23T01:47:10.836Z,0
2018-07-23T01:48:10.831Z,0
2018-07-23T01:49:10.903Z,0
2018-07-23T01:50:10.863Z,0
2018-07-23T01:51:10.906Z,0
2018-07-23T01:52:10.872Z,0
2018-07-23T01:53:10.840Z,0
2018-07-23T01:54:10.911Z,0
2018-07-23T01:55:10.843Z,0
2018-07-23T01:56:10.844Z,0
2018-07-23T01:57:10.876Z,0
2018-07-23T01:58:10.914Z,0
2018-07-23T01:59:10.917Z,0
2018-07-23T02:00:10.915Z,0
2018-07-23T02:01:10.858Z,0
2018-07-23T02:02:10.834Z,0
2018-07-23T02:03:10.880Z,0
2018-07-23T02:04:10.980Z,0
2018-07-23T02:05:10.846Z,0
2018-07-23T02:06:10.861Z,0
2018-07-23T02:07:10.923Z,0
2018-07-23T02:08:10.887Z,0
2018-07-23T02:09:10.929Z,0
2018-07-23T02:10:10.959Z,0
2018-07-23T02:11:10.949Z,0
2018-07-23T02:12:10.903Z,0
2018-07-23T02:13:10.928Z,0
2018-07-23T02:14:10.934Z,0
2018-07-23T02:15:10.888Z,0
2018-07-23T02:16:10.930Z,0
2018-07-23T02:17:10.907Z,0
2018-07-23T02:18:10.951Z,0
2018-07-23T02:19:10.828Z,0
2018-07-23T02:20:10.871Z,0
2018-07-23T02:21:10.916Z,0
2018-07-23T02:22:10.924Z,0
2018-07-23T02:23:10.829Z,0
2018-07-23T02:24:10.890Z,0
2018-07-23T02:25:10.923Z,0
2018-07-23T02:26:10.919Z,0
2018-07-23T02:27:10.923Z,0
2018-07-23T02:28:10.965Z,0
2018-07-23T02:29:10.874Z,0
2018-07-23T02:30:10.876Z,0
2018-07-23T02:31:10.814Z,0
2018-07-23T02:32:10.926Z,0
2018-07-23T02:33:10.929Z,0
2018-07-23T02:34:10.841Z,0
2018-07-23T02:35:10.902Z,0
2018-07-23T02:36:10.881Z,0
2018-07-23T02:37:10.938Z,0
2018-07-23T02:38:10.873Z,0
2018-07-23T02:39:10.955Z,0
2018-07-23T02:40:10.866Z,0
2018-07-23T02:41:10.937Z,0
2018-07-23T02:42:10.867Z,0
2018-07-23T02:43:10.878Z,0
2018-07-23T02:44:10.943Z,0
2018-07-23T02:45:10.871Z,0
2018-07-23T02:46:10.945Z,0
2018-07-23T02:47:10.873Z,0
2018-07-23T02:48:10.952Z,0
2018-07-23T02:49:10.877Z,0
2018-07-23T02:50:10.919Z,0
2018-07-23T02:51:10.960Z,0
2018-07-23T02:52:10.858Z,0
2018-07-23T02:53:10.916Z,0
2018-07-23T02:54:10.923Z,0
2018-07-23T02:55:10.984Z,0
2018-07-23T02:56:10.890Z,0
2018-07-23T02:57:10.970Z,0
2018-07-23T02:58:10.889Z,0
2018-07-23T02:59:10.901Z,0
2018-07-23T03:00:10.921Z,0
2018-07-23T03:01:10.892Z,0
2018-07-23T03:02:10.963Z,0
2018-07-23T03:03:10.965Z,0
2018-07-23T03:04:10.965Z,0
2018-07-23T03:05:10.963Z,0
2018-07-23T03:06:10.896Z,0
2018-07-23T03:07:10.896Z,0
2018-07-23T03:08:10.969Z,0
2018-07-23T03:09:11.025Z,0
2018-07-23T03:10:10.897Z,0
2018-07-23T03:11:10.905Z,0
2018-07-23T03:12:10.865Z,0
2018-07-23T03:13:10.900Z,0
2018-07-23T03:14:10.929Z,0
2018-07-23T03:15:10.902Z,0
2018-07-23T03:16:10.904Z,0
2018-07-23T03:17:10.981Z,0
2018-07-23T03:18:10.974Z,0
2018-07-23T03:19:10.918Z,0
2018-07-23T03:20:10.975Z,5
2018-07-23T03:21:10.983Z,5
2018-07-23T03:22:10.903Z,5
2018-07-23T03:23:10.986Z,5
2018-07-23T03:24:10.984Z,5
2018-07-23T03:25:10.979Z,5
2018-07-23T03:26:10.984Z,5
2018-07-23T03:27:10.939Z,5
2018-07-23T03:28:10.968Z,11
2018-07-23T03:29:10.958Z,11
2018-07-23T03:30:11.015Z,11
2018-07-23T03:31:10.914Z,11
2018-07-23T03:32:10.905Z,11
2018-07-23T03:33:10.904Z,11
2018-07-23T03:34:11.071Z,16
2018-07-23T03:35:11.046Z,16
2018-07-23T03:36:11.023Z,16
2018-07-23T03:37:10.990Z,16
2018-07-23T03:38:11.010Z,22
2018-07-23T03:39:11.005Z,22
2018-07-23T03:40:11.052Z,22
2018-07-23T03:41:10.960Z,28
2018-07-23T03:42:11.013Z,28
2018-07-23T03:43:11.037Z,28
2018-07-23T03:44:10.948Z,33
2018-07-23T03:45:10.928Z,33
2018-07-23T03:46:10.988Z,33
2018-07-23T03:47:10.967Z,39
2018-07-23T03:48:11.015Z,39
2018-07-23T03:49:10.952Z,39
2018-07-23T03:50:10.963Z,45
2018-07-23T03:51:10.919Z,45
2018-07-23T03:52:10.972Z,50
2018-07-23T03:53:11.032Z,50
2018-07-23T03:54:11.001Z,56
2018-07-23T03:55:10.975Z,56
2018-07-23T03:56:10.996Z,56
2018-07-23T03:57:11.022Z,61
2018-07-23T03:58:11.003Z,61
2018-07-23T03:59:10.932Z,67
2018-07-23T04:00:11.006Z,67
2018-07-23T04:01:11.094Z,73
2018-07-23T04:02:10.933Z,78
2018-07-23T04:03:11.002Z,78
2018-07-23T04:04:10.934Z,84
2018-07-23T04:05:11.004Z,90
2018-07-23T04:06:10.937Z,90
2018-07-23T04:07:11.008Z,95
2018-07-23T04:08:11.008Z,95
2018-07-23T04:09:10.921Z,95
2018-07-23T04:10:10.991Z,95
2018-07-23T04:11:11.010Z,95
2018-07-23T04:12:11.036Z,101
2018-07-23T04:13:10.968Z,106
2018-07-23T04:14:10.966Z,106
2018-07-23T04:15:11.036Z,106
2018-07-23T04:16:11.013Z,106
2018-07-23T04:17:10.927Z,112
2018-07-23T04:18:10.977Z,112
2018-07-23T04:19:10.931Z,112
2018-07-23T04:20:11.012Z,118
2018-07-23T04:21:10.933Z,118
2018-07-23T04:22:11.006Z,118
2018-07-23T04:23:11.009Z,118
2018-07-23T04:24:10.975Z,123
2018-07-23T04:25:10.895Z,123
2018-07-23T04:26:11.008Z,123
2018-07-23T04:27:11.012Z,123
2018-07-23T04:28:10.982Z,123
2018-07-23T04:29:11.015Z,135
2018-07-23T04:30:11.009Z,140
2018-07-23T04:31:10.931Z,151
2018-07-23T04:32:10.936Z,151
2018-07-23T04:33:10.937Z,151
2018-07-23T04:34:11.012Z,157
2018-07-23T04:35:10.941Z,157
2018-07-23T04:36:10.941Z,151
2018-07-23T04:37:10.929Z,151
2018-07-23T04:38:10.961Z,151
2018-07-23T04:39:11.012Z,157
2018-07-23T04:40:10.966Z,163
2018-07-23T04:41:10.930Z,168
2018-07-23T04:42:11.024Z,174
2018-07-23T04:43:10.943Z,174
2018-07-23T04:44:10.953Z,180
2018-07-23T04:45:10.901Z,185
2018-07-23T04:46:11.018Z,191
2018-07-23T04:47:11.030Z,191
2018-07-23T04:48:10.961Z,196
2018-07-23T04:49:11.038Z,196
2018-07-23T04:50:10.969Z,208
2018-07-23T04:51:10.968Z,213
2018-07-23T04:52:11.037Z,230
2018-07-23T04:53:11.045Z,236
2018-07-23T04:54:10.966Z,241
2018-07-23T04:55:11.039Z,241
2018-07-23T04:56:11.050Z,253
2018-07-23T04:57:11.000Z,241
2018-07-23T04:58:11.020Z,247
2018-07-23T04:59:11.012Z,264
2018-07-23T05:00:11.078Z,281
2018-07-23T05:01:11.071Z,292
2018-07-23T05:02:11.044Z,298
2018-07-23T05:03:11.018Z,298
2018-07-23T05:04:11.080Z,303
2018-07-23T05:05:11.043Z,320
2018-07-23T05:06:10.940Z,348
2018-07-23T05:07:10.989Z,360
2018-07-23T05:08:10.949Z,371
2018-07-23T05:09:11.003Z,371
2018-07-23T05:10:11.042Z,388
2018-07-23T05:11:10.953Z,393
2018-07-23T05:12:11.041Z,382
2018-07-23T05:13:10.969Z,365
2018-07-23T05:14:10.952Z,382
2018-07-23T05:15:10.996Z,393
2018-07-23T05:16:10.974Z,382
2018-07-23T05:17:11.004Z,376
2018-07-23T05:18:10.975Z,388
2018-07-23T05:19:10.958Z,388
2018-07-23T05:20:11.045Z,427
2018-07-23T05:21:10.990Z,399
2018-07-23T05:22:10.923Z,393
2018-07-23T05:23:11.046Z,399
2018-07-23T05:24:10.996Z,416
2018-07-23T05:25:10.964Z,444
2018-07-23T05:26:10.970Z,455
2018-07-23T05:27:10.988Z,461
2018-07-23T05:28:11.057Z,466
2018-07-23T05:29:10.994Z,517
2018-07-23T05:30:10.995Z,562
2018-07-23T05:31:11.065Z,545
2018-07-23T05:32:10.952Z,540
2018-07-23T05:33:11.064Z,579
2018-07-23T05:34:11.061Z,585
2018-07-23T05:36:11.066Z,568
2018-07-23T05:37:10.970Z,579
2018-07-23T05:38:11.019Z,607
2018-07-23T05:39:11.048Z,613
2018-07-23T05:40:11.070Z,596
2018-07-23T05:41:11.108Z,613
2018-07-23T05:42:11.043Z,646
2018-07-23T05:43:11.087Z,663
2018-07-23T05:44:11.049Z,663
2018-07-23T05:45:11.146Z,663
2018-07-23T05:46:11.111Z,663
2018-07-23T05:47:10.999Z,675
2018-07-23T05:48:10.944Z,680
2018-07-23T05:49:11.004Z,703
2018-07-23T05:50:11.057Z,731
2018-07-23T05:51:10.971Z,725
2018-07-23T05:52:11.014Z,725
2018-07-23T05:53:10.971Z,731
2018-07-23T05:54:10.965Z,748
2018-07-23T05:55:11.032Z,787
2018-07-23T05:56:11.064Z,866
2018-07-23T05:57:11.013Z,911
2018-07-23T05:58:11.104Z,905
2018-07-23T05:59:11.093Z,894
2018-07-23T06:00:11.111Z,826
2018-07-23T06:01:11.135Z,793
2018-07-23T06:02:11.056Z,765
2018-07-23T06:03:11.102Z,776
2018-07-23T06:04:11.046Z,826
2018-07-23T06:05:11.106Z,933
2018-07-23T06:06:11.119Z,939
2018-07-23T06:07:11.119Z,933
2018-07-23T06:08:11.043Z,905
2018-07-23T06:09:11.051Z,888
2018-07-23T06:10:11.110Z,883
2018-07-23T06:11:11.010Z,978
2018-07-23T06:12:11.132Z,1091
2018-07-23T06:13:11.114Z,1046
2018-07-23T06:14:11.112Z,1046
2018-07-23T06:15:11.125Z,1068
2018-07-23T06:16:11.123Z,1057
2018-07-23T06:17:11.057Z,1023
2018-07-23T06:18:11.093Z,1080
2018-07-23T06:19:11.112Z,1091
2018-07-23T06:20:11.092Z,1057
2018-07-23T06:21:11.023Z,1063
2018-07-23T06:22:11.095Z,1141
2018-07-23T06:23:11.097Z,1130
2018-07-23T06:24:11.101Z,1181
2018-07-23T06:25:11.032Z,1271
2018-07-23T06:26:11.031Z,1440
2018-07-23T06:27:11.077Z,1428
2018-07-23T06:28:11.064Z,1428
2018-07-23T06:29:11.001Z,1524
2018-07-23T06:30:11.156Z,1462
2018-07-23T06:31:11.126Z,1260
2018-07-23T06:32:11.006Z,1203
2018-07-23T06:33:11.122Z,1395
2018-07-23T06:34:11.102Z,1350
2018-07-23T06:35:11.020Z,1276
2018-07-23T06:36:11.008Z,1608
2018-07-23T06:37:11.083Z,1378
2018-07-23T06:38:11.003Z,1333
2018-07-23T06:39:10.976Z,1676
2018-07-23T06:40:11.037Z,1710
2018-07-23T06:41:11.088Z,2154
2018-07-23T06:42:11.039Z,2075
2018-07-23T06:43:11.127Z,1861
2018-07-23T06:44:11.001Z,1693
2018-07-23T06:45:11.012Z,1867
2018-07-23T06:46:11.000Z,1918
2018-07-23T06:47:11.071Z,2064
2018-07-23T06:48:11.037Z,2340
2018-07-23T06:49:11.133Z,2632
2018-07-23T06:50:11.114Z,2593
2018-07-23T06:51:11.073Z,1918
2018-07-23T06:52:11.176Z,1704
2018-07-23T06:53:11.139Z,1687
2018-07-23T06:54:11.149Z,1625
2018-07-23T06:55:11.153Z,1665
2018-07-23T06:56:11.052Z,1884
2018-07-23T06:57:11.096Z,2604
2018-07-23T06:58:11.043Z,2435
2018-07-23T06:59:11.122Z,1794
2018-07-23T07:00:11.092Z,1755
2018-07-23T07:01:11.044Z,1777
2018-07-23T07:02:11.105Z,1698
2018-07-23T07:03:11.133Z,2126
2018-07-23T07:04:11.094Z,1738
2018-07-23T07:05:11.147Z,2098
2018-07-23T07:06:11.098Z,2857
2018-07-23T07:07:11.063Z,2143
2018-07-23T07:08:11.121Z,2188
2018-07-23T07:09:11.089Z,2975
2018-07-23T07:10:11.082Z,3020
2018-07-23T07:11:11.092Z,3060
2018-07-23T07:12:11.120Z,2986
2018-07-23T07:13:11.036Z,2688
2018-07-23T07:14:11.122Z,2863
2018-07-23T07:15:11.123Z,1743
2018-07-23T07:16:11.054Z,2874
2018-07-23T07:17:11.065Z,2784
2018-07-23T07:18:11.040Z,2851
2018-07-23T07:19:11.166Z,2750
2018-07-23T07:20:11.139Z,2801
2018-07-23T07:21:11.055Z,2840
2018-07-23T07:22:11.096Z,2936
2018-07-23T07:23:11.066Z,2953
2018-07-23T07:24:11.136Z,2958
2018-07-23T07:25:11.177Z,2863
2018-07-23T07:26:11.155Z,2964
2018-07-23T07:27:11.164Z,3048
2018-07-23T07:28:11.173Z,3054
2018-07-23T07:29:11.108Z,3043
2018-07-23T07:30:11.175Z,3133
2018-07-23T07:31:11.078Z,3054
2018-07-23T07:32:11.170Z,3138
2018-07-23T07:33:11.063Z,3166
2018-07-23T07:34:11.176Z,3150
2018-07-23T07:35:11.069Z,3178
2018-07-23T07:36:11.109Z,3228
2018-07-23T07:37:11.047Z,3206
2018-07-23T07:38:11.206Z,3223
2018-07-23T07:39:11.119Z,3262
2018-07-23T07:40:11.184Z,3245
2018-07-23T07:41:11.068Z,3228
2018-07-23T07:42:11.177Z,3296
2018-07-23T07:43:11.072Z,3346
2018-07-23T07:44:11.155Z,3369
2018-07-23T07:45:11.178Z,3352
2018-07-23T07:46:11.192Z,3341
2018-07-23T07:47:11.071Z,3363
2018-07-23T07:48:11.059Z,3391
2018-07-23T07:49:11.144Z,3442
2018-07-23T07:50:11.173Z,3436
2018-07-23T07:51:11.072Z,3476
2018-07-23T07:52:11.105Z,3493
2018-07-23T07:53:11.154Z,3504
2018-07-23T07:54:11.120Z,3515
2018-07-23T07:55:11.077Z,3532
2018-07-23T07:56:11.175Z,3571
2018-07-23T07:57:11.090Z,3588
2018-07-23T07:58:11.060Z,3600
2018-07-23T07:59:11.120Z,3656
2018-07-23T08:00:11.140Z,3695
2018-07-23T08:01:11.166Z,3611
2018-07-23T08:02:11.133Z,3577
2018-07-23T08:03:11.165Z,3611
2018-07-23T08:04:11.121Z,3639
2018-07-23T08:05:11.105Z,3701
2018-07-23T08:06:11.128Z,3785
2018-07-23T08:07:11.206Z,3802
2018-07-23T08:08:11.147Z,3836
2018-07-23T08:09:11.148Z,3881
2018-07-23T08:10:11.204Z,3886
2018-07-23T08:11:11.201Z,3920
2018-07-23T08:12:11.167Z,3909
2018-07-23T08:13:11.182Z,3858
2018-07-23T08:14:11.143Z,3864
2018-07-23T08:15:11.206Z,3898
2018-07-23T08:16:11.194Z,3915
2018-07-23T08:17:11.194Z,3915
2018-07-23T08:18:11.095Z,3931
2018-07-23T08:19:11.187Z,3931
2018-07-23T08:20:11.102Z,3954
2018-07-23T08:21:11.100Z,3915
2018-07-23T08:22:11.175Z,3954
2018-07-23T08:23:11.087Z,3971
2018-07-23T08:24:11.096Z,4005
2018-07-23T08:25:11.198Z,3982
2018-07-23T08:26:11.138Z,3971
2018-07-23T08:27:11.059Z,3954
2018-07-23T08:28:11.136Z,3999
2018-07-23T08:29:11.135Z,4016
2018-07-23T08:30:11.121Z,4050
2018-07-23T08:31:11.201Z,4066
2018-07-23T08:32:11.144Z,4117
2018-07-23T08:33:11.044Z,4190
2018-07-23T08:34:11.131Z,4179
2018-07-23T08:35:11.049Z,4190
2018-07-23T08:36:11.137Z,4196
2018-07-23T08:37:11.133Z,4145
2018-07-23T08:38:11.146Z,4168
2018-07-23T08:39:11.120Z,4196
2018-07-23T08:40:11.211Z,4179
2018-07-23T08:41:11.121Z,4201
2018-07-23T08:42:11.120Z,4201
2018-07-23T08:43:11.147Z,4235
2018-07-23T08:44:11.128Z,4246
2018-07-23T08:45:11.126Z,4275
2018-07-23T08:46:11.128Z,4348
2018-07-23T08:47:11.199Z,4387
2018-07-23T08:48:11.125Z,4404
2018-07-23T08:49:11.201Z,4359
2018-07-23T08:50:11.128Z,4404
2018-07-23T08:51:11.227Z,4432
2018-07-23T08:52:11.131Z,4449
2018-07-23T08:53:11.130Z,4443
2018-07-23T08:54:11.242Z,4500
2018-07-23T08:55:11.167Z,4584
2018-07-23T08:56:11.293Z,4595
2018-07-23T08:57:11.203Z,4550
2018-07-23T08:58:11.199Z,4567
2018-07-23T08:59:11.197Z,4657
2018-07-23T09:00:11.110Z,4606
2018-07-23T09:01:11.107Z,4522
2018-07-23T09:02:11.249Z,4567
2018-07-23T09:03:11.078Z,4483
2018-07-23T09:04:11.202Z,4550
2018-07-23T09:05:11.145Z,4595
2018-07-23T09:06:11.136Z,4668
2018-07-23T09:07:11.079Z,4702
2018-07-23T09:08:11.148Z,4753
2018-07-23T09:09:11.172Z,4758
2018-07-23T09:10:11.242Z,4775
2018-07-23T09:11:11.209Z,4781
2018-07-23T09:12:11.372Z,4730
2018-07-23T09:13:11.240Z,4730
2018-07-23T09:14:11.172Z,4680
2018-07-23T09:15:11.214Z,4747
2018-07-23T09:16:11.190Z,4781
2018-07-23T09:17:11.151Z,4803
2018-07-23T09:18:11.139Z,4815
2018-07-23T09:19:11.117Z,4753
2018-07-23T09:20:11.219Z,4876
2018-07-23T09:21:11.188Z,4871
2018-07-23T09:22:11.156Z,4955
2018-07-23T09:23:11.211Z,4972
2018-07-23T09:24:11.198Z,5000
2018-07-23T09:25:11.123Z,5085
2018-07-23T09:26:11.249Z,5158
2018-07-23T09:27:11.127Z,5124
2018-07-23T09:28:11.159Z,5062
2018-07-23T09:29:11.224Z,5034
2018-07-23T09:30:11.159Z,5051
2018-07-23T09:31:11.287Z,5073
2018-07-23T09:32:11.157Z,5146
2018-07-23T09:33:11.223Z,5130
2018-07-23T09:34:11.160Z,5085
2018-07-23T09:35:11.225Z,5028
2018-07-23T09:36:11.225Z,5068
2018-07-23T09:37:11.207Z,5090
2018-07-23T09:38:11.199Z,5107
2018-07-23T09:39:11.190Z,5191
2018-07-23T09:40:11.251Z,5411
2018-07-23T09:41:11.137Z,5355
2018-07-23T09:42:11.227Z,5343
2018-07-23T09:43:11.305Z,5388
2018-07-23T09:44:11.138Z,5467
2018-07-23T09:45:11.155Z,5197
2018-07-23T09:46:11.274Z,4702
2018-07-23T09:47:11.237Z,2115
2018-07-23T09:48:11.233Z,2092
2018-07-23T09:49:11.235Z,1845
2018-07-23T09:50:11.184Z,1811
2018-07-23T09:51:11.240Z,1929
2018-07-23T09:52:11.173Z,4376
2018-07-23T09:53:11.133Z,4657
2018-07-23T09:54:11.177Z,1816
2018-07-23T09:55:11.241Z,1726
2018-07-23T09:56:11.175Z,1760
2018-07-23T09:57:11.240Z,1951
2018-07-23T09:58:11.110Z,2491
2018-07-23T09:59:11.234Z,5276
2018-07-23T10:00:11.232Z,5276
2018-07-23T10:01:11.169Z,5625
2018-07-23T10:02:11.233Z,5608
2018-07-23T10:03:11.262Z,5748
2018-07-23T10:04:11.249Z,5737
2018-07-23T10:05:11.230Z,4837
2018-07-23T10:06:11.238Z,5141
2018-07-23T10:07:11.232Z,5788
2018-07-23T10:08:11.182Z,5810
2018-07-23T10:09:11.180Z,5760
2018-07-23T10:10:11.176Z,3898
2018-07-23T10:11:11.139Z,5670
2018-07-23T10:12:11.211Z,5771
2018-07-23T10:13:11.184Z,5664
2018-07-23T10:14:11.144Z,5653
2018-07-23T10:16:11.207Z,5546
2018-07-23T10:17:11.129Z,5574
2018-07-23T10:18:11.188Z,5591
2018-07-23T10:19:11.257Z,5625
2018-07-23T10:20:11.193Z,5540
2018-07-23T10:21:11.267Z,5540
2018-07-23T10:22:11.277Z,5473
2018-07-23T10:23:11.192Z,5512
2018-07-23T10:24:11.280Z,5051
2018-07-23T10:25:11.261Z,5298
2018-07-23T10:26:11.259Z,3363
2018-07-23T10:27:11.195Z,4230
2018-07-23T10:28:11.216Z,5107
2018-07-23T10:29:11.264Z,4792
2018-07-23T10:30:11.229Z,4927
2018-07-23T10:31:11.282Z,4978
2018-07-23T10:32:11.208Z,5242
2018-07-23T10:33:11.305Z,5506
2018-07-23T10:34:11.229Z,5501
2018-07-23T10:35:11.332Z,5568
2018-07-23T10:36:11.175Z,5720
2018-07-23T10:37:11.235Z,5709
2018-07-23T10:38:11.197Z,5641
2018-07-23T10:39:11.199Z,5670
2018-07-23T10:40:11.308Z,5658
2018-07-23T10:41:11.306Z,5580
2018-07-23T10:42:11.222Z,5574
2018-07-23T10:43:11.199Z,5563
2018-07-23T10:44:11.202Z,5585
2018-07-23T10:45:11.163Z,5568
2018-07-23T10:46:11.166Z,5310
2018-07-23T10:47:11.144Z,5478
2018-07-23T10:48:11.242Z,5540
2018-07-23T10:49:11.198Z,5630
2018-07-23T10:50:11.302Z,5551
2018-07-23T10:51:11.242Z,5512
2018-07-23T10:52:11.300Z,5591
2018-07-23T10:53:11.188Z,5473
2018-07-23T10:54:11.317Z,5422
2018-07-23T10:55:11.241Z,5433
2018-07-23T10:56:11.303Z,5461
2018-07-23T10:57:11.352Z,5315
2018-07-23T10:58:11.286Z,5146
2018-07-23T10:59:11.281Z,3009
2018-07-23T11:00:11.216Z,4719
2018-07-23T11:01:11.286Z,4854
2018-07-23T11:02:11.220Z,5450
2018-07-23T11:03:11.285Z,5490
2018-07-23T11:04:11.223Z,5585
2018-07-23T11:05:11.169Z,5276
2018-07-23T11:06:11.228Z,5349
2018-07-23T11:07:11.235Z,5377
2018-07-23T11:08:11.195Z,5478
2018-07-23T11:09:11.264Z,5490
2018-07-23T11:10:11.318Z,5563
2018-07-23T11:11:11.211Z,5445
2018-07-23T11:12:11.412Z,5253
2018-07-23T11:13:11.294Z,5394
2018-07-23T11:14:11.295Z,5124
2018-07-23T11:15:11.262Z,5276
2018-07-23T11:16:11.247Z,5371
2018-07-23T11:17:11.262Z,5287
2018-07-23T11:18:11.191Z,5130
2018-07-23T11:19:11.172Z,5006
2018-07-23T11:20:11.250Z,4966
2018-07-23T11:21:11.248Z,4803
2018-07-23T11:22:11.199Z,4815
2018-07-23T11:23:11.285Z,5062
2018-07-23T11:24:11.209Z,5225
2018-07-23T11:25:40.215Z,5208
2018-07-23T11:26:11.311Z,5265
2018-07-23T11:27:11.254Z,5366
2018-07-23T11:28:11.274Z,5461
2018-07-23T11:29:11.240Z,5473
2018-07-23T11:30:11.242Z,5529
2018-07-23T11:31:11.241Z,5535
2018-07-23T11:32:11.277Z,5484
2018-07-23T11:33:11.307Z,5467
2018-07-23T11:34:11.199Z,5326
2018-07-23T11:35:11.279Z,5203
2018-07-23T11:36:11.279Z,5259
2018-07-23T11:37:11.306Z,5214
2018-07-23T11:38:11.240Z,5152
2018-07-23T11:39:11.316Z,5214
2018-07-23T11:40:11.244Z,5203
2018-07-23T11:41:11.240Z,5135
2018-07-23T11:42:11.243Z,5090
2018-07-23T11:43:11.250Z,5124
2018-07-23T11:44:11.213Z,5186
2018-07-23T11:45:11.299Z,5186
2018-07-23T11:46:24.425Z,5169
2018-07-23T11:47:11.298Z,5146
2018-07-23T11:48:11.307Z,5118
2018-07-23T11:49:11.224Z,5146
2018-07-23T11:50:11.190Z,5124
2018-07-23T11:51:11.312Z,5118
2018-07-23T11:53:11.255Z,5265
2018-07-23T11:54:11.225Z,5315
2018-07-23T11:55:11.304Z,5366
2018-07-23T11:56:11.229Z,5445
2018-07-23T11:57:11.227Z,5484
2018-07-23T11:58:11.260Z,5467
2018-07-23T11:59:11.257Z,5405
2018-07-23T12:00:11.259Z,5394
2018-07-23T12:01:11.325Z,5428
2018-07-23T12:02:11.328Z,5506
2018-07-23T12:03:11.331Z,5512
2018-07-23T12:04:11.402Z,5467
2018-07-23T12:05:11.263Z,5422
2018-07-23T12:06:11.331Z,5400
2018-07-23T12:07:11.265Z,5394
2018-07-23T12:08:11.353Z,5411
2018-07-23T12:09:11.335Z,5383
2018-07-23T12:10:11.303Z,5343
2018-07-23T12:11:11.358Z,5321
2018-07-23T12:12:11.381Z,5248
2018-07-23T12:13:11.353Z,5146
2018-07-23T12:14:11.376Z,5135
2018-07-23T12:15:11.277Z,5141
2018-07-23T12:16:11.260Z,5118
2018-07-23T12:17:11.315Z,5124
2018-07-23T12:18:11.263Z,5090
2018-07-23T12:19:11.338Z,5118
2018-07-23T12:20:11.293Z,5107
2018-07-23T12:21:11.370Z,5101
2018-07-23T12:22:11.383Z,5146
2018-07-23T12:23:11.342Z,5169
2018-07-23T12:24:11.315Z,5130
2018-07-23T12:25:11.340Z,5079
2018-07-23T12:26:11.397Z,4955
2018-07-23T12:27:11.306Z,4826
2018-07-23T12:28:11.362Z,4713
2018-07-23T12:29:11.306Z,4696
2018-07-23T12:30:11.373Z,4713
2018-07-23T12:31:11.345Z,4770
2018-07-23T12:32:11.269Z,4747
2018-07-23T12:33:11.306Z,4691
2018-07-23T12:34:11.378Z,4663
2018-07-23T12:35:11.366Z,4595
2018-07-23T12:36:11.314Z,4533
2018-07-23T12:37:11.390Z,4443
2018-07-23T12:38:11.288Z,4410
2018-07-23T12:39:11.354Z,4477
2018-07-23T12:40:11.349Z,4606
2018-07-23T12:41:11.294Z,4702
2018-07-23T12:42:11.294Z,4781
2018-07-23T12:43:11.323Z,4860
2018-07-23T12:44:11.289Z,4916
2018-07-23T12:45:11.356Z,4995
2018-07-23T12:46:11.355Z,5056
2018-07-23T12:47:11.424Z,5040
2018-07-23T12:48:11.363Z,4938
2018-07-23T12:49:11.312Z,4876
2018-07-23T12:50:11.398Z,4854
2018-07-23T12:51:11.377Z,4837
2018-07-23T12:52:11.336Z,4826
2018-07-23T12:53:11.393Z,4809
2018-07-23T12:54:11.269Z,4786
2018-07-23T12:55:11.317Z,4826
2018-07-23T12:56:11.317Z,4843
2018-07-23T12:57:11.288Z,4848
2018-07-23T12:58:11.329Z,4826
2018-07-23T12:59:11.333Z,4820
2018-07-23T13:00:11.366Z,4831
2018-07-23T13:01:11.392Z,4753
2018-07-23T13:02:11.393Z,4758
2018-07-23T13:03:11.346Z,4741
2018-07-23T13:04:11.388Z,4770
2018-07-23T13:05:11.322Z,4809
2018-07-23T13:06:11.287Z,4815
2018-07-23T13:07:11.402Z,4781
2018-07-23T13:08:11.323Z,4786
2018-07-23T13:09:11.372Z,4792
2018-07-23T13:10:11.311Z,4820
2018-07-23T13:11:11.342Z,4860
2018-07-23T13:12:11.347Z,4837
2018-07-23T13:13:11.337Z,4747
2018-07-23T13:14:11.387Z,4646
2018-07-23T13:15:11.280Z,4561
2018-07-23T13:16:11.281Z,4483
2018-07-23T13:17:11.377Z,4460
2018-07-23T13:18:11.396Z,4460
2018-07-23T13:19:11.408Z,4410
2018-07-23T13:20:11.347Z,4348
2018-07-23T13:21:11.401Z,4286
2018-07-23T13:22:11.280Z,4263
2018-07-23T13:23:11.304Z,4331
2018-07-23T13:24:11.341Z,4370
2018-07-23T13:25:11.343Z,4387
2018-07-23T13:26:11.291Z,4387
2018-07-23T13:27:11.292Z,4387
2018-07-23T13:28:11.406Z,4393
2018-07-23T13:29:11.345Z,4404
2018-07-23T13:30:11.413Z,4410
2018-07-23T13:31:11.356Z,4404
2018-07-23T13:32:11.385Z,4359
2018-07-23T13:33:11.283Z,4336
2018-07-23T13:34:11.310Z,4275
2018-07-23T13:35:11.390Z,4291
2018-07-23T13:36:11.334Z,4280
2018-07-23T13:37:11.315Z,4286
2018-07-23T13:38:11.516Z,4269
2018-07-23T13:39:11.309Z,4230
2018-07-23T13:40:11.348Z,4179
2018-07-23T13:41:11.345Z,4179
2018-07-23T13:42:11.396Z,4173
2018-07-23T13:43:11.416Z,4111
2018-07-23T13:44:11.350Z,4083
2018-07-23T13:45:11.359Z,4095
2018-07-23T13:46:11.395Z,4162
2018-07-23T13:47:11.294Z,4213
2018-07-23T13:48:11.359Z,4190
2018-07-23T13:49:11.433Z,4145